Time;durP1;ratioP1;P1;durP2;ratioP2;P2;SDS_P1;SDS_P2;PMS_P1;PMS_P2;Temp;Humidity;BMP_temperature;BMP_pressure;BME280_temperature;BME280_humidity;BME280_pressure;Samples;Min_cycle;Max_cycle;Signal;HPM_P1;HPM_P2
2022/06/17 00:00:13;;;;;;;1.38;0.90;;;;;;;17.31;49.68;100637.34;10463738;28;20016;-73
2022/06/17 00:05:15;;;;;;;3.10;1.13;;;;;;;17.17;49.79;100652.22;10463443;28;20037;-73
2022/06/17 00:10:23;;;;;;;1.98;0.85;;;;;;;17.18;49.87;100645.97;10462629;28;20589;-73
2022/06/17 00:15:25;;;;;;;2.38;1.15;;;;;;;17.31;49.55;100631.13;10461530;28;20117;-73
2022/06/17 00:20:27;;;;;;;4.43;0.90;;;;;;;17.36;49.30;100640.63;10460911;28;20059;-73
2022/06/17 00:25:34;;;;;;;2.30;0.68;;;;;;;17.45;48.79;100652.59;10461895;28;20398;-73
2022/06/17 00:30:36;;;;;;;1.60;0.80;;;;;;;17.14;50.07;100647.94;10460182;28;20064;-74
2022/06/17 00:35:41;;;;;;;2.35;0.73;;;;;;;17.13;50.15;100649.75;10459139;28;20063;-74
2022/06/17 00:40:44;;;;;;;1.85;0.90;;;;;;;16.94;50.04;100651.56;10460263;28;20471;-73
2022/06/17 00:45:52;;;;;;;2.17;0.93;;;;;;;17.18;49.21;100649.53;10461713;28;20052;-73
2022/06/17 00:50:59;;;;;;;0.98;0.80;;;;;;;16.90;50.75;100645.53;10461793;28;20129;-73
2022/06/17 00:56:11;;;;;;;0.50;0.50;;;;;;;16.76;50.44;100642.69;10460911;28;20044;-73
2022/06/17 01:01:13;;;;;;;1.95;1.17;;;;;;;16.75;50.33;100651.59;10461103;28;20489;-73
2022/06/17 01:06:19;;;;;;;1.60;0.60;;;;;;;16.59;51.12;100648.75;10459282;28;20091;-73
2022/06/17 01:11:25;;;;;;;2.35;0.70;;;;;;;16.48;50.78;100652.84;10458862;28;20041;-73
2022/06/17 01:16:33;;;;;;;2.08;0.85;;;;;;;16.50;50.96;100658.94;10459351;28;20045;-73
2022/06/17 01:22:00;;;;;;;1.30;0.73;;;;;;;16.64;50.69;100652.06;10461149;28;20041;-73
2022/06/17 01:27:02;;;;;;;3.40;0.90;;;;;;;16.47;50.84;100664.38;10460310;28;20036;-73
2022/06/17 01:32:04;;;;;;;0.73;0.52;;;;;;;16.26;51.24;100666.25;10459851;28;20048;-73
2022/06/17 01:37:07;;;;;;;1.75;0.80;;;;;;;16.32;50.89;100658.00;10459168;28;20498;-73
2022/06/17 01:42:10;;;;;;;1.65;0.63;;;;;;;16.26;52.00;100653.84;10460773;28;20051;-73
2022/06/17 01:47:18;;;;;;;0.93;0.60;;;;;;;16.24;51.73;100668.94;10459871;28;20384;-73
2022/06/17 01:52:26;;;;;;;1.63;0.70;;;;;;;16.39;51.05;100673.56;10442778;28;20449;-73
2022/06/17 01:57:35;;;;;;;1.17;0.80;;;;;;;16.14;51.75;100681.75;10459020;28;20079;-74
2022/06/17 02:02:40;;;;;;;1.35;0.88;;;;;;;16.09;52.08;100683.75;10457916;28;20434;-73
2022/06/17 02:07:48;;;;;;;1.80;0.73;;;;;;;15.99;52.35;100674.50;10457159;28;20079;-73
2022/06/17 02:12:50;;;;;;;0.82;0.70;;;;;;;16.02;51.74;100679.63;10441069;28;20041;-73
2022/06/17 02:17:53;;;;;;;2.20;0.80;;;;;;;16.07;51.18;100688.28;10457141;28;20148;-73
2022/06/17 02:23:08;;;;;;;0.90;0.70;;;;;;;15.91;51.74;100692.53;10457361;28;20048;-74
2022/06/17 02:28:11;;;;;;;1.77;0.75;;;;;;;15.70;52.77;100701.38;10457321;28;20057;-74
2022/06/17 02:33:14;;;;;;;1.67;0.70;;;;;;;15.36;54.06;100710.69;10458111;28;20041;-74
2022/06/17 02:38:19;;;;;;;1.67;0.70;;;;;;;15.35;53.79;100719.56;10457891;28;20080;-73
2022/06/17 02:43:25;;;;;;;2.72;0.70;;;;;;;15.32;54.24;100728.53;10456420;28;20071;-73
2022/06/17 02:48:50;;;;;;;2.30;0.70;;;;;;;15.11;54.82;100721.44;10456991;28;20049;-73
2022/06/17 02:53:53;;;;;;;0.80;0.70;;;;;;;15.19;54.42;100724.63;10447856;28;20052;-74
2022/06/17 02:59:17;;;;;;;1.80;0.88;;;;;;;15.45;53.60;100720.94;10456434;28;20041;-73
2022/06/17 03:04:31;;;;;;;2.88;0.80;;;;;;;15.10;55.01;100733.81;10457732;28;20574;-73
2022/06/17 03:09:36;;;;;;;2.55;0.57;;;;;;;14.79;55.83;100727.97;10457871;28;20045;-73
2022/06/17 03:14:48;;;;;;;2.17;0.85;;;;;;;14.67;56.15;100741.66;10459097;28;20035;-73
2022/06/17 03:19:54;;;;;;;2.78;0.80;;;;;;;14.62;56.68;100734.75;10460056;28;20044;-73
2022/06/17 03:25:09;;;;;;;2.70;0.65;;;;;;;14.52;56.88;100732.50;10458242;28;20068;-73
2022/06/17 03:30:13;;;;;;;0.98;0.60;;;;;;;14.49;57.41;100719.41;10458820;28;20073;-73
2022/06/17 03:35:27;;;;;;;1.05;0.80;;;;;;;14.64;57.04;100724.09;10464678;28;20065;-73
2022/06/17 03:40:34;;;;;;;1.23;0.60;;;;;;;14.54;57.56;100731.53;10467649;28;20112;-74
2022/06/17 03:45:43;;;;;;;3.45;0.90;;;;;;;14.55;57.39;100735.91;10466278;28;20483;-74
2022/06/17 03:50:47;;;;;;;1.80;0.80;;;;;;;14.57;57.54;100742.00;10465571;28;20110;-73
2022/06/17 03:55:57;;;;;;;2.10;0.77;;;;;;;14.79;57.36;100746.50;10464431;28;20059;-73
2022/06/17 04:01:21;;;;;;;2.67;0.77;;;;;;;14.79;57.25;100741.22;10463906;28;20073;-74
2022/06/17 04:06:38;;;;;;;2.17;0.82;;;;;;;14.78;57.91;100756.19;10465409;28;20045;-73
2022/06/17 04:11:44;;;;;;;1.17;0.68;;;;;;;14.89;57.33;100766.41;10465260;28;20033;-73
2022/06/17 04:17:08;;;;;;;1.60;0.90;;;;;;;15.63;55.20;100751.97;10464397;28;20094;-73
2022/06/17 04:22:25;;;;;;;1.42;0.88;;;;;;;15.60;54.82;100772.44;10464668;28;20041;-73
2022/06/17 04:27:58;;;;;;;2.28;1.08;;;;;;;15.72;54.74;100768.47;10467775;28;20372;-74
2022/06/17 04:33:11;;;;;;;1.35;0.82;;;;;;;15.81;54.62;100768.94;10465556;22;20152;-68
2022/06/17 04:38:13;;;;;;;1.13;0.65;;;;;;;15.66;55.16;100766.91;10408984;28;20057;-67
2022/06/17 04:43:40;;;;;;;1.80;0.70;;;;;;;16.06;53.32;100778.50;10457386;28;20041;-67
2022/06/17 04:48:42;;;;;;;2.78;0.80;;;;;;;16.20;53.59;100780.56;10458811;28;20049;-67
2022/06/17 04:53:47;;;;;;;1.98;0.57;;;;;;;16.43;53.38;100775.13;10440426;28;20048;-67
2022/06/17 04:59:26;;;;;;;1.92;0.80;;;;;;;17.20;50.22;100768.97;10440516;28;20052;-67
2022/06/17 05:04:28;;;;;;;2.15;0.93;;;;;;;17.14;50.71;100778.97;10441291;28;20052;-67
2022/06/17 05:09:43;;;;;;;1.67;0.80;;;;;;;17.26;50.46;100779.31;10440248;28;20049;-68
2022/06/17 05:15:01;;;;;;;0.80;0.60;;;;;;;17.87;48.24;100782.53;10440063;28;20498;-67
2022/06/17 05:20:04;;;;;;;1.77;0.50;;;;;;;18.47;47.62;100791.91;10439795;28;20049;-68
2022/06/17 05:25:20;;;;;;;2.35;0.70;;;;;;;18.95;45.92;100790.25;10439557;28;20132;-67
2022/06/17 05:30:25;;;;;;;0.70;0.60;;;;;;;19.49;44.33;100783.66;10439200;28;20053;-68
2022/06/17 05:35:28;;;;;;;2.00;0.75;;;;;;;19.80;43.94;100782.78;10439049;28;20406;-67
2022/06/17 05:40:32;;;;;;;1.85;0.50;;;;;;;19.77;43.95;100776.78;10438985;28;20044;-68
2022/06/17 05:45:35;;;;;;;2.20;0.70;;;;;;;20.59;43.09;100774.53;10438671;28;20056;-68
2022/06/17 05:50:46;;;;;;;4.07;0.88;;;;;;;20.61;42.36;100779.75;10440047;28;20421;-69
2022/06/17 05:55:59;;;;;;;1.27;0.50;;;;;;;20.97;42.41;100778.41;10438156;28;20135;-69
2022/06/17 06:01:01;;;;;;;1.08;0.60;;;;;;;21.67;40.80;100774.75;10438554;28;20069;-69
2022/06/17 06:06:04;;;;;;;1.33;0.70;;;;;;;21.54;41.11;100779.19;10438289;28;20498;-69
2022/06/17 06:11:07;;;;;;;3.15;0.60;;;;;;;21.76;40.77;100785.78;10437921;28;20140;-69
2022/06/17 06:16:15;;;;;;;6.53;0.60;;;;;;;21.73;41.44;100791.34;10438104;28;20505;-68
2022/06/17 06:21:23;;;;;;;2.80;0.57;;;;;;;22.10;40.01;100793.28;10437963;28;20080;-68
2022/06/17 06:26:25;;;;;;;5.78;0.80;;;;;;;22.90;38.39;100802.06;10437677;28;20048;-69
2022/06/17 06:31:48;;;;;;;2.15;0.65;;;;;;;22.98;38.06;100809.56;10438319;28;20387;-68
2022/06/17 06:36:59;;;;;;;3.90;0.60;;;;;;;22.58;39.66;100803.44;10438128;28;20041;-68
2022/06/17 06:42:02;;;;;;;1.27;0.50;;;;;;;21.90;39.47;100801.78;10437361;28;20052;-68
2022/06/17 06:47:06;;;;;;;0.90;0.45;;;;;;;22.58;37.80;100811.47;10437241;28;20111;-68
2022/06/17 06:52:20;;;;;;;2.10;0.60;;;;;;;22.55;39.57;100804.50;10437349;28;20132;-68
2022/06/17 06:57:23;;;;;;;0.73;0.40;;;;;;;23.37;38.27;100823.72;10437793;28;20049;-68
2022/06/17 07:02:34;;;;;;;1.17;0.45;;;;;;;22.41;38.44;100834.94;10437146;28;20061;-68
2022/06/17 07:07:37;;;;;;;1.75;0.47;;;;;;;22.59;38.39;100835.47;10439779;28;20069;-68
2022/06/17 07:12:38;;;;;;;1.50;0.45;;;;;;;23.14;37.53;100844.16;10445069;28;20057;-69
2022/06/17 07:17:53;;;;;;;2.70;0.60;;;;;;;23.26;36.72;100853.19;10462994;28;20040;-68
2022/06/17 07:22:55;;;;;;;2.33;0.43;;;;;;;22.96;37.85;100850.84;10462459;28;20055;-68
2022/06/17 07:27:57;;;;;;;2.90;0.63;;;;;;;22.81;39.16;100845.56;10444950;28;20037;-68
2022/06/17 07:32:59;;;;;;;3.20;0.60;;;;;;;23.15;38.04;100851.25;10444024;28;20076;-68
2022/06/17 07:43:21;;;;;;;2.13;0.63;;;;;;;22.91;38.26;100843.97;10461880;28;20112;-68
2022/06/17 07:48:23;;;;;;;1.95;0.55;;;;;;;23.65;37.65;100853.00;10443758;28;20044;-68
2022/06/17 07:53:27;;;;;;;2.55;0.63;;;;;;;23.48;37.31;100864.06;10426690;28;20060;-68
2022/06/17 07:58:29;;;;;;;3.75;0.80;;;;;;;23.81;38.12;100867.94;10460985;28;20056;-68
2022/06/17 08:03:31;;;;;;;2.80;0.57;;;;;;;23.15;38.07;100868.22;10443131;28;20044;-68
2022/06/17 08:08:34;;;;;;;1.20;0.80;;;;;;;23.44;37.65;100878.66;10460574;28;20071;-68
2022/06/17 08:13:37;;;;;;;1.40;0.80;;;;;;;23.69;38.17;100866.19;10460296;28;20060;-68
2022/06/17 08:18:39;;;;;;;3.72;0.60;;;;;;;23.25;38.34;100881.81;10442786;28;20060;-68
2022/06/17 08:23:41;;;;;;;4.32;0.70;;;;;;;23.97;37.44;100875.75;10459859;28;20413;-68
2022/06/17 08:28:43;;;;;;;2.53;0.60;;;;;;;24.19;37.22;100888.41;10459719;28;20403;-68
2022/06/17 08:33:45;;;;;;;1.38;0.60;;;;;;;23.07;39.74;100878.63;10459495;28;20514;-69
2022/06/17 08:38:59;;;;;;;1.45;0.65;;;;;;;23.60;38.33;100895.38;10460706;28;20041;-69
2022/06/17 08:44:22;;;;;;;1.48;0.60;;;;;;;23.33;38.87;100898.22;10459300;28;20041;-69
2022/06/17 08:49:43;;;;;;;0.98;0.50;;;;;;;22.72;39.09;100899.81;10459384;28;20045;-68
2022/06/17 08:54:50;;;;;;;2.15;0.50;;;;;;;22.86;39.71;100899.72;10440276;28;20075;-68
2022/06/17 09:00:05;;;;;;;1.48;0.43;;;;;;;23.06;39.50;100902.84;10458281;28;20052;-69
2022/06/17 09:05:22;;;;;;;1.38;0.65;;;;;;;22.50;39.46;100900.41;10458374;28;20077;-68
2022/06/17 09:10:49;;;;;;;1.15;0.50;;;;;;;24.01;36.14;100899.56;10458289;28;20037;-68
2022/06/17 09:16:00;;;;;;;1.40;0.60;;;;;;;24.22;36.17;100897.13;10457936;28;20044;-69
2022/06/17 09:21:18;;;;;;;1.58;0.40;;;;;;;23.49;38.36;100894.44;10457656;28;20406;-69
2022/06/17 09:26:24;;;;;;;1.85;0.63;;;;;;;23.46;38.58;100890.13;10457664;28;20068;-68
2022/06/17 09:31:33;;;;;;;1.88;0.50;;;;;;;24.09;37.64;100891.81;10456910;28;20407;-68
2022/06/17 09:36:51;;;;;;;2.40;0.60;;;;;;;25.19;35.08;100887.88;10457257;28;20041;-69
2022/06/17 09:42:13;;;;;;;0.55;0.40;;;;;;;23.76;37.89;100891.59;10457540;28;20041;-68
2022/06/17 09:47:28;;;;;;;2.15;0.57;;;;;;;24.77;36.10;100886.69;10456637;28;20048;-67
2022/06/17 09:52:47;;;;;;;3.10;0.70;;;;;;;25.36;34.96;100879.28;10456526;28;20047;-67
2022/06/17 09:58:00;;;;;;;1.67;0.60;;;;;;;25.07;35.04;100861.91;10456406;28;20509;-69
2022/06/17 10:03:08;;;;;;;5.35;0.77;;;;;;;25.62;34.33;100865.56;10456011;28;20495;-69
2022/06/17 10:08:21;;;;;;;1.13;0.60;;;;;;;26.43;33.49;100864.22;10455986;28;20045;-69
2022/06/17 10:13:30;;;;;;;4.05;0.50;;;;;;;26.57;33.07;100863.06;10456847;28;20448;-69
2022/06/17 10:19:04;;;;;;;1.75;0.55;;;;;;;25.84;34.63;100861.97;10457195;28;20043;-69
2022/06/17 10:24:16;;;;;;;1.25;0.47;;;;;;;26.00;33.29;100857.03;10414271;28;20423;-68
2022/06/17 10:29:31;;;;;;;2.13;0.60;;;;;;;25.71;33.23;100839.72;10437048;28;20052;-68
2022/06/17 10:34:46;;;;;;;1.20;0.60;;;;;;;27.18;32.54;100841.53;10540399;22;20489;-71
2022/06/17 10:39:48;;;;;;;0.80;0.40;;;;;;;27.05;30.64;100839.06;10540484;28;20046;-71
2022/06/17 10:44:59;;;;;;;0.93;0.40;;;;;;;27.72;32.01;100837.59;10549388;28;20109;-70
2022/06/17 10:50:27;;;;;;;8.10;0.82;;;;;;;27.67;31.22;100832.59;10549260;28;20091;-71
2022/06/17 10:55:43;;;;;;;2.28;0.50;;;;;;;26.73;32.68;100825.66;10547611;28;20075;-70
2022/06/17 11:00:58;;;;;;;2.90;0.43;;;;;;;25.62;34.42;100825.16;10548140;28;20044;-70
2022/06/17 11:06:18;;;;;;;1.60;0.50;;;;;;;26.36;32.84;100817.19;10548977;28;20036;-70
2022/06/17 11:17:11;;;;;;;2.28;0.40;;;;;;;27.06;31.60;100807.53;10546658;28;20036;-71
2022/06/17 11:22:19;;;;;;;2.25;0.47;;;;;;;27.43;31.49;100807.78;10513095;28;20044;-71
2022/06/17 11:27:56;;;;;;;0.73;0.32;;;;;;;27.26;31.57;100805.75;10548106;28;20036;-69
2022/06/17 11:33:00;;;;;;;2.35;0.65;;;;;;;27.53;31.84;100803.25;10378245;28;20137;-71
2022/06/17 11:38:09;;;;;;;2.50;0.60;;;;;;;27.47;31.85;100787.63;10361010;28;20508;-70
2022/06/17 11:43:45;;;;;;;1.55;0.50;;;;;;;27.16;31.31;100782.28;10376667;28;20070;-72
2022/06/17 11:48:59;;;;;;;1.55;0.35;;;;;;;27.37;30.81;100784.06;10376585;28;20148;-70
2022/06/17 11:54:20;;;;;;;0.65;0.40;;;;;;;27.72;30.98;100780.00;10358892;28;20058;-71
2022/06/17 11:59:25;;;;;;;1.48;0.57;;;;;;;27.74;30.78;100786.13;10336584;28;20073;-70
2022/06/17 12:05:03;;;;;;;1.42;0.40;;;;;;;27.64;29.90;100780.69;10335646;28;20058;-70
2022/06/17 12:10:29;;;;;;;2.22;0.40;;;;;;;26.95;32.08;100769.84;10504496;28;20041;-71
2022/06/17 12:15:39;;;;;;;2.35;0.50;;;;;;;27.53;30.83;100768.16;10485767;28;20041;-71
2022/06/17 12:20:53;;;;;;;1.15;0.40;;;;;;;27.98;30.93;100759.53;10504493;28;20082;-71
2022/06/17 12:26:00;;;;;;;2.95;0.55;;;;;;;27.47;31.51;100773.28;10505886;28;20426;-71
2022/06/17 12:31:17;;;;;;;0.80;0.35;;;;;;;27.83;30.97;100763.66;10486380;28;20417;-71
2022/06/17 12:36:28;;;;;;;2.90;0.50;;;;;;;27.61;29.42;100760.19;10485340;28;20045;-71
2022/06/17 12:41:42;;;;;;;3.30;0.40;;;;;;;27.18;30.43;100768.66;10502980;28;20052;-71
2022/06/17 12:47:04;;;;;;;0.88;0.50;;;;;;;27.27;30.47;100772.38;10502474;28;20052;-71
2022/06/17 12:57:59;;;;;;;0.77;0.37;;;;;;;27.20;30.81;100763.97;10502358;28;20451;-72
2022/06/17 13:03:22;;;;;;;1.45;0.40;;;;;;;26.24;31.12;100748.16;10501106;28;20490;-72
2022/06/17 13:08:55;;;;;;;1.25;0.50;;;;;;;26.61;31.31;100756.66;10482335;28;20064;-72
2022/06/17 13:14:32;;;;;;;1.40;0.30;;;;;;;27.01;32.28;100753.97;10482950;28;20102;-71
2022/06/17 13:19:48;;;;;;;2.20;0.40;;;;;;;26.60;31.88;100746.81;10487520;28;20063;-71
2022/06/17 13:25:02;;;;;;;2.55;0.60;;;;;;;26.16;31.90;100735.34;10501168;28;20056;-71
2022/06/17 13:30:20;;;;;;;1.35;0.40;;;;;;;26.64;31.55;100735.63;10502473;28;20052;-71
2022/06/17 13:35:40;;;;;;;3.33;0.50;;;;;;;25.89;32.62;100722.41;10482440;28;20072;-71
2022/06/17 13:40:47;;;;;;;1.40;0.47;;;;;;;26.97;31.01;100714.75;10481423;28;20048;-71
2022/06/17 13:45:58;;;;;;;1.17;0.55;;;;;;;26.88;31.56;100711.03;10498399;28;20448;-71
2022/06/17 13:51:07;;;;;;;1.27;0.40;;;;;;;26.84;30.15;100696.13;10499453;28;20037;-71
2022/06/17 13:56:20;;;;;;;0.90;0.30;;;;;;;26.24;30.62;100696.97;10482604;28;20425;-71
2022/06/17 14:01:22;;;;;;;1.83;0.40;;;;;;;26.59;31.65;100692.03;10499843;28;20444;-71
2022/06/17 14:06:32;;;;;;;2.72;0.65;;;;;;;26.71;31.01;100683.88;10499898;28;20044;-72
2022/06/17 14:11:39;;;;;;;0.77;0.40;;;;;;;26.75;30.86;100690.69;10498178;28;20047;-72
2022/06/17 14:16:42;;;;;;;2.75;0.40;;;;;;;26.57;31.84;100694.03;10498915;28;20033;-71
2022/06/17 14:21:53;;;;;;;1.33;0.32;;;;;;;27.25;29.18;100690.69;10498493;28;20068;-71
2022/06/17 14:26:55;;;;;;;1.48;0.30;;;;;;;27.49;29.95;100676.75;10480395;28;20050;-72
2022/06/17 14:32:03;;;;;;;0.63;0.30;;;;;;;27.58;29.43;100684.91;10479385;28;20386;-71
2022/06/17 14:37:13;;;;;;;1.13;0.30;;;;;;;27.41;29.83;100677.50;10498945;28;20047;-70
2022/06/17 14:42:18;;;;;;;1.35;0.35;;;;;;;26.76;30.19;100684.31;10498134;28;20398;-70
2022/06/17 14:47:29;;;;;;;1.33;0.60;;;;;;;27.32;30.42;100678.34;10498748;28;20051;-70
2022/06/17 14:52:35;;;;;;;1.98;0.28;;;;;;;27.74;29.08;100678.06;10480537;28;20040;-70
2022/06/17 14:57:55;;;;;;;0.82;0.32;;;;;;;28.02;29.56;100682.56;10479797;28;20056;-70
2022/06/17 15:02:58;;;;;;;2.38;0.40;;;;;;;27.96;29.27;100682.31;10497668;28;20045;-69
2022/06/17 15:08:13;;;;;;;1.30;0.30;;;;;;;28.11;28.01;100675.44;10497526;28;20047;-70
2022/06/17 15:18:40;;;;;;;2.53;0.40;;;;;;;27.97;29.11;100665.09;10497340;28;19920;-71
2022/06/17 15:23:58;;;;;;;2.38;0.40;;;;;;;28.29;28.62;100675.53;10497375;28;20047;-70
2022/06/17 15:29:10;;;;;;;1.00;0.50;;;;;;;27.46;29.13;100663.56;10501679;28;20047;-70
2022/06/17 15:34:16;;;;;;;1.65;0.32;;;;;;;28.20;28.70;100661.06;10504640;28;20062;-70
2022/06/17 15:39:31;;;;;;;2.65;0.60;;;;;;;29.28;27.18;100654.09;10504400;28;20044;-70
2022/06/17 15:44:36;;;;;;;1.13;0.30;;;;;;;29.67;26.77;100657.38;10504363;28;20052;-70
2022/06/17 15:49:52;;;;;;;1.35;0.32;;;;;;;27.60;28.29;100645.06;10486231;28;20044;-70
2022/06/17 15:55:10;;;;;;;1.05;0.43;;;;;;;27.64;29.23;100634.84;10504591;28;20041;-70
2022/06/17 16:00:20;;;;;;;2.42;0.40;;;;;;;27.41;29.88;100626.19;10504801;28;20064;-71
2022/06/17 16:05:29;;;;;;;0.88;0.30;;;;;;;27.66;29.58;100622.03;10504426;28;20037;-72
2022/06/17 16:10:39;;;;;;;2.75;0.60;;;;;;;27.87;28.42;100632.69;10504188;28;20446;-71
2022/06/17 16:15:45;;;;;;;0.73;0.43;;;;;;;27.99;29.24;100634.25;10503599;28;20036;-70
2022/06/17 16:20:46;;;;;;;2.35;1.20;;;;;;;27.33;29.97;100634.16;10485751;28;20047;-71
2022/06/17 16:25:48;;;;;;;0.88;0.60;;;;;;;26.63;31.54;100634.16;10503150;28;20032;-71
2022/06/17 16:30:53;;;;;;;2.35;0.50;;;;;;;26.96;30.34;100617.75;10502673;28;20036;-71
2022/06/17 16:36:10;;;;;;;1.65;0.40;;;;;;;26.62;30.98;100621.69;10547173;22;20040;-70
2022/06/17 16:46:32;;;;;;;1.08;0.68;;;;;;;25.65;32.40;100626.53;10585472;28;20408;-70
2022/06/17 16:51:34;;;;;;;1.38;0.60;;;;;;;25.38;33.29;100627.06;10584902;28;20120;-70
2022/06/17 16:56:36;;;;;;;0.77;0.50;;;;;;;25.36;31.52;100626.31;10584246;28;20044;-69
2022/06/17 17:01:37;;;;;;;0.90;0.80;;;;;;;25.38;32.26;100629.75;10584317;28;20078;-69
2022/06/17 17:06:39;;;;;;;6.70;0.40;;;;;;;25.30;32.21;100625.97;10583820;28;20500;-69
2022/06/17 17:11:41;;;;;;;1.67;0.60;;;;;;;25.00;32.10;100626.66;10584407;28;20450;-70
2022/06/17 17:16:45;;;;;;;1.88;0.80;;;;;;;24.91;32.69;100626.44;10565396;28;20035;-70
2022/06/17 17:21:48;;;;;;;2.63;0.70;;;;;;;25.03;32.43;100629.97;10583370;28;20047;-70
2022/06/17 17:26:53;;;;;;;0.82;0.55;;;;;;;24.85;33.34;100626.97;10583945;28;20036;-70
2022/06/17 17:31:55;;;;;;;3.85;0.95;;;;;;;25.10;33.26;100630.31;10583721;28;20046;-70
2022/06/17 17:36:56;;;;;;;3.22;0.70;;;;;;;24.77;34.04;100618.66;10583249;28;20105;-69
2022/06/17 17:41:59;;;;;;;0.80;0.45;;;;;;;24.63;34.02;100627.84;10582945;28;20039;-70
2022/06/17 17:47:02;;;;;;;3.20;0.85;;;;;;;24.48;33.99;100630.91;10582589;28;20386;-70
2022/06/17 17:52:05;;;;;;;1.15;0.60;;;;;;;24.64;34.35;100629.56;10581754;28;20069;-70
2022/06/17 17:57:06;;;;;;;2.42;1.10;;;;;;;24.74;34.24;100612.69;10582103;28;20436;-70
2022/06/17 18:02:12;;;;;;;1.88;0.50;;;;;;;24.71;34.60;100624.56;10581546;28;20043;-70
2022/06/17 18:07:13;;;;;;;0.60;0.40;;;;;;;24.92;33.61;100611.16;10563235;28;20093;-70
2022/06/17 18:12:21;;;;;;;1.67;0.50;;;;;;;24.87;34.74;100613.38;10582586;28;20043;-70
2022/06/17 18:17:23;;;;;;;2.13;0.60;;;;;;;24.71;34.53;100621.88;10581557;28;20043;-70
2022/06/17 18:22:24;;;;;;;2.40;0.55;;;;;;;24.56;35.35;100620.41;10563328;28;20044;-70
2022/06/17 18:27:27;;;;;;;2.35;0.75;;;;;;;24.45;35.95;100615.91;10581240;28;20053;-70
2022/06/17 18:32:28;;;;;;;1.23;0.57;;;;;;;24.65;35.26;100625.88;10581914;28;20166;-70
2022/06/17 18:37:32;;;;;;;1.75;1.00;;;;;;;24.22;37.08;100617.72;10581739;28;20492;-71
2022/06/17 18:42:36;;;;;;;2.10;0.98;;;;;;;24.04;37.58;100619.16;10581626;28;20042;-71
2022/06/17 18:47:39;;;;;;;2.17;1.40;;;;;;;24.04;37.15;100609.31;10580830;28;20519;-71
2022/06/17 18:52:41;;;;;;;2.72;1.42;;;;;;;23.86;37.98;100613.41;10580751;28;20126;-71
2022/06/17 18:57:42;;;;;;;3.72;1.00;;;;;;;24.11;36.93;100609.66;10580742;28;20055;-71
2022/06/17 19:02:44;;;;;;;2.20;0.68;;;;;;;24.17;36.60;100609.16;10581965;28;20047;-71
2022/06/17 19:18:29;;;;;;;0.82;0.55;;;;;;;23.69;37.50;100609.38;10588422;28;20046;-71
2022/06/17 19:23:31;;;;;;;2.85;0.50;;;;;;;23.44;38.66;100621.09;10588715;28;20481;-71
2022/06/17 19:28:33;;;;;;;3.05;0.80;;;;;;;23.34;38.44;100626.31;10587947;28;20119;-71
2022/06/17 19:33:35;;;;;;;2.20;1.30;;;;;;;23.36;37.58;100623.50;10587932;28;20054;-71
2022/06/17 19:38:41;;;;;;;2.15;1.10;;;;;;;23.41;37.46;100626.69;10588180;28;20044;-71
2022/06/17 19:43:43;;;;;;;1.55;1.02;;;;;;;23.13;38.80;100622.56;10587681;28;20039;-71
2022/06/17 19:48:50;;;;;;;1.48;0.73;;;;;;;22.89;38.82;100628.78;10587052;28;20135;-70
2022/06/17 19:53:52;;;;;;;1.83;0.60;;;;;;;22.73;39.15;100632.66;10586818;28;20043;-71
2022/06/17 19:58:57;;;;;;;1.77;0.70;;;;;;;22.70;39.82;100635.56;10568826;28;20106;-70
2022/06/17 20:04:04;;;;;;;1.63;0.97;;;;;;;22.58;40.18;100632.81;10586504;28;20461;-70
2022/06/17 20:09:06;;;;;;;2.03;0.90;;;;;;;22.67;40.30;100634.81;10587096;28;20084;-71
2022/06/17 20:14:14;;;;;;;1.98;1.02;;;;;;;22.53;40.88;100626.91;10586370;28;20097;-71
2022/06/17 20:19:16;;;;;;;4.03;1.38;;;;;;;22.34;41.53;100623.84;10585982;28;20039;-71
2022/06/17 20:24:18;;;;;;;2.38;1.00;;;;;;;22.34;42.27;100623.84;10585743;28;20074;-70
2022/06/17 20:29:32;;;;;;;2.20;1.10;;;;;;;22.64;41.80;100623.47;10585514;28;20507;-71
2022/06/17 20:34:34;;;;;;;3.40;1.92;;;;;;;22.57;41.81;100620.34;10585043;28;20044;-70
2022/06/17 20:39:37;;;;;;;3.25;1.33;;;;;;;22.50;42.13;100621.78;10566865;28;20048;-72
2022/06/17 20:49:59;;;;;;;3.75;1.27;;;;;;;22.30;43.44;100614.31;10585245;28;20118;-71
2022/06/17 20:55:01;;;;;;;2.65;1.40;;;;;;;22.35;42.50;100610.34;10584720;28;20044;-71
2022/06/17 21:00:15;;;;;;;2.22;1.38;;;;;;;22.38;42.54;100611.97;10565924;28;20067;-71
2022/06/17 21:05:21;;;;;;;3.25;1.17;;;;;;;22.30;42.63;100607.13;10583911;28;20051;-71
2022/06/17 21:10:27;;;;;;;2.38;1.40;;;;;;;22.31;42.87;100598.16;10584694;28;20047;-71
2022/06/17 21:15:31;;;;;;;2.58;1.00;;;;;;;22.39;42.24;100593.09;10583433;28;20044;-71
2022/06/17 21:20:33;;;;;;;2.50;1.20;;;;;;;22.37;42.42;100602.22;10584329;28;20042;-71
2022/06/17 21:25:37;;;;;;;2.08;1.10;;;;;;;22.29;42.33;100602.75;10582409;28;20054;-71
2022/06/17 21:30:39;;;;;;;2.85;1.10;;;;;;;22.37;42.29;100599.53;10564947;28;20048;-71
2022/06/17 21:35:45;;;;;;;2.08;1.23;;;;;;;22.25;42.51;100597.72;10583018;28;20404;-71
2022/06/17 21:40:50;;;;;;;2.60;1.58;;;;;;;22.13;43.04;100591.41;10582918;28;20087;-71
2022/06/17 21:45:52;;;;;;;2.80;1.40;;;;;;;22.12;42.75;100592.38;10582459;28;20036;-71
2022/06/17 21:50:55;;;;;;;3.70;1.50;;;;;;;21.83;43.75;100589.06;10582145;28;20050;-71
2022/06/17 21:55:59;;;;;;;2.47;1.50;;;;;;;21.63;44.21;100591.28;10581957;28;20070;-71
2022/06/17 22:01:02;;;;;;;2.20;1.10;;;;;;;21.55;44.53;100590.09;10582039;28;20049;-71
2022/06/17 22:06:06;;;;;;;3.40;1.48;;;;;;;21.38;45.22;100583.22;10581826;28;20560;-71
2022/06/17 22:11:58;;;;;;;3.42;1.60;;;;;;;21.24;45.39;100578.78;10582438;28;20408;-71
2022/06/17 22:16:33;;;;;;;1.75;1.60;;;;;;;21.21;45.66;100575.50;10581434;28;20463;-71
2022/06/17 22:21:35;;;;;;;3.30;1.25;;;;;;;21.28;45.54;100574.94;10581931;28;20409;-70
2022/06/17 22:26:36;;;;;;;2.90;1.90;;;;;;;21.30;45.44;100578.41;10581313;28;20050;-71
2022/06/17 22:31:38;;;;;;;1.85;1.30;;;;;;;21.29;45.68;100575.81;10581187;28;20039;-71
2022/06/17 22:36:40;;;;;;;1.52;1.13;;;;;;;21.12;46.37;100567.13;10567867;22;20059;-74
2022/06/17 22:41:43;;;;;;;2.20;1.20;;;;;;;21.09;46.70;100566.47;10565831;28;20039;-75
2022/06/17 22:46:47;;;;;;;1.63;1.10;;;;;;;21.07;46.07;100563.03;10600574;28;20040;-74
2022/06/17 22:51:50;;;;;;;2.70;1.20;;;;;;;21.00;46.68;100551.91;10600468;28;20039;-74
2022/06/17 22:56:52;;;;;;;3.13;1.20;;;;;;;20.92;46.47;100557.75;10599511;28;20046;-74
2022/06/17 23:01:58;;;;;;;2.55;0.98;;;;;;;20.72;47.14;100560.91;10600347;28;20472;-74
2022/06/17 23:07:02;;;;;;;2.22;1.30;;;;;;;20.64;46.62;100560.53;10585000;28;20073;-73
2022/06/17 23:12:09;;;;;;;1.52;0.80;;;;;;;20.57;46.61;100557.41;10594065;28;20040;-73
2022/06/17 23:19:59;;;;;;;1.52;1.17;;;;;;;20.46;47.09;100549.22;10574554;28;20048;-73
2022/06/17 23:23:00;;;;;;;2.13;1.13;;;;;;;20.36;47.56;100538.28;10573454;28;20048;-74
2022/06/17 23:28:02;;;;;;;1.75;0.80;;;;;;;20.34;47.34;100545.50;10592484;28;20036;-74
2022/06/17 23:33:08;;;;;;;1.90;1.00;;;;;;;20.49;46.16;100546.34;10573726;28;20055;-74
2022/06/17 23:38:11;;;;;;;2.05;0.60;;;;;;;20.50;46.79;100537.41;10592372;28;20110;-73
2022/06/17 23:43:13;;;;;;;2.30;1.20;;;;;;;20.25;47.09;100535.41;10573978;28;20047;-73
2022/06/17 23:48:18;;;;;;;2.03;1.30;;;;;;;20.36;46.84;100542.72;10592173;28;20097;-73
2022/06/17 23:53:23;;;;;;;3.63;1.50;;;;;;;20.16;47.30;100547.53;10591046;28;20110;-74
2022/06/17 23:58:25;;;;;;;2.35;1.40;;;;;;;19.99;47.81;100538.88;10592009;28;20051;-73
